Salinas Municipal Airport Salinas US
ICAO: KSNS
IATA: SNS
Category: Medium
Scheduled Services: No

Elevation: 85 ft
TransAlt. 18000 ft.

Airport Communications:
NORCAL APP/DEP:127.15
ATIS:124.85
CTAF:119.4
GND:121.7
OAKLAND RDO:122.6
TWR:119.4
UNICOM:122.95

KSNS Zoom In..

Runways:

(A) RW 08 length 6004 ft width 150 ft
---- / hdg 81

(B) RW 13 length 4825 ft width 150 ft
---- / hdg 132

(C) RW 26 length 6004 ft width 150 ft
---- / hdg 261

(D) RW 31 length 4825 ft width 150 ft
ILS 108.50 / hdg 312

Location; KSNS
Day. 01 / Time. 16.53 Zulu
* Altimeter: 30.21
* Temperature: 08° c. 46.4°f.
* Wind from: 130° Speed 05 kn.
Dewpoint: 00° c.
Visibility: 10 Statute Miles.
Clouds: Clear (automated report).

KSNS 011653Z 13005KT 10SM CLR 08/00 A3021 RMK AO2 SLP241 T00830000

Going to: --> -->


Wind From 130°
Speed 05 kn.

 
 
jpsmedia worldairports.se 2020   terms of use